createdAt,value
2019-03-30T00:00:37.456Z,8.1
2019-03-30T00:01:47.878Z,8
2019-03-30T00:02:57.110Z,8
2019-03-30T00:04:06.456Z,8
2019-03-30T00:05:15.741Z,8
2019-03-30T00:06:25.065Z,8
2019-03-30T00:07:34.411Z,8
2019-03-30T00:08:43.693Z,8.1
2019-03-30T00:09:53.119Z,8
2019-03-30T00:11:02.353Z,8
2019-03-30T00:12:11.651Z,8
2019-03-30T00:13:20.982Z,7.9
2019-03-30T00:14:30.285Z,7.9
2019-03-30T00:15:39.627Z,7.9
2019-03-30T00:16:48.918Z,7.9
2019-03-30T00:17:58.346Z,7.8
2019-03-30T00:19:07.562Z,7.8
2019-03-30T00:20:16.873Z,7.9
2019-03-30T00:21:26.227Z,7.8
2019-03-30T00:22:35.546Z,7.8
2019-03-30T00:23:45.991Z,7.8
2019-03-30T00:24:55.336Z,7.8
2019-03-30T00:26:04.620Z,7.7
2019-03-30T00:27:13.971Z,7.7
2019-03-30T00:28:23.263Z,7.8
2019-03-30T00:29:32.582Z,7.8
2019-03-30T00:30:41.869Z,7.8
2019-03-30T00:31:51.182Z,7.8
2019-03-30T00:33:00.657Z,7.8
2019-03-30T00:34:09.823Z,7.8
2019-03-30T00:35:19.129Z,7.8
2019-03-30T00:36:28.425Z,7.8
2019-03-30T00:37:37.833Z,7.7
2019-03-30T00:38:47.159Z,7.8
2019-03-30T00:39:56.369Z,7.7
2019-03-30T00:41:05.695Z,7.7
2019-03-30T00:42:15.040Z,7.8
2019-03-30T00:43:24.284Z,7.8
2019-03-30T00:44:33.683Z,7.8
2019-03-30T00:45:42.909Z,7.7
2019-03-30T00:46:52.398Z,7.8
2019-03-30T00:48:01.531Z,7.7
2019-03-30T00:49:10.847Z,7.8
2019-03-30T00:50:20.443Z,7.8
2019-03-30T00:51:29.460Z,7.8
2019-03-30T00:52:38.785Z,7.7
2019-03-30T00:53:48.086Z,7.8
2019-03-30T00:54:57.466Z,7.8
2019-03-30T00:56:06.917Z,7.7
2019-03-30T00:57:16.001Z,7.8
2019-03-30T00:58:25.669Z,7.7
2019-03-30T00:59:34.622Z,7.7
2019-03-30T01:00:43.988Z,7.7
2019-03-30T01:01:53.550Z,7.6
2019-03-30T01:03:02.557Z,7.6
2019-03-30T01:04:11.867Z,7.7
2019-03-30T01:05:21.180Z,7.6
2019-03-30T01:06:30.610Z,7.7
2019-03-30T01:07:39.809Z,7.7
2019-03-30T01:08:49.104Z,7.7
2019-03-30T01:09:58.390Z,7.6
2019-03-30T01:11:07.700Z,7.6
2019-03-30T01:12:17.020Z,7.6
2019-03-30T01:13:26.339Z,7.6
2019-03-30T01:14:35.640Z,7.7
2019-03-30T01:15:44.940Z,7.7
2019-03-30T01:16:54.390Z,7.6
2019-03-30T01:18:03.547Z,7.6
2019-03-30T01:19:12.886Z,7.7
2019-03-30T01:20:22.170Z,7.6
2019-03-30T01:21:31.522Z,7.6
2019-03-30T01:22:40.818Z,7.6
2019-03-30T01:23:51.315Z,7.5
2019-03-30T01:25:00.664Z,7.5
2019-03-30T01:26:09.928Z,7.5
2019-03-30T01:27:19.211Z,7.5
2019-03-30T01:28:28.563Z,7.5
2019-03-30T01:29:37.830Z,7.5
2019-03-30T01:30:47.174Z,7.5
2019-03-30T01:31:56.438Z,7.5
2019-03-30T01:33:05.757Z,7.4
2019-03-30T01:34:15.080Z,7.4
2019-03-30T01:35:24.496Z,7.4
2019-03-30T01:36:33.679Z,7.4
2019-03-30T01:37:42.962Z,7.3
2019-03-30T01:38:52.275Z,7.4
2019-03-30T01:40:01.566Z,7.3
2019-03-30T01:41:10.889Z,7.3
2019-03-30T01:42:20.226Z,7.3
2019-03-30T01:43:29.545Z,7.3
2019-03-30T01:44:38.824Z,7.3
2019-03-30T01:45:48.179Z,7.3
2019-03-30T01:46:57.394Z,7.3
2019-03-30T01:48:06.948Z,7.3
2019-03-30T01:49:15.985Z,7.3
2019-03-30T01:50:25.340Z,7.3
2019-03-30T01:51:34.590Z,7.3
2019-03-30T01:52:43.887Z,7.3
2019-03-30T01:53:53.189Z,7.3
2019-03-30T01:55:02.520Z,7.3
2019-03-30T01:56:11.909Z,7.3
2019-03-30T01:57:22.251Z,7.3
2019-03-30T01:58:31.417Z,7.3
2019-03-30T01:59:40.824Z,7.3
2019-03-30T02:00:50.043Z,7.3
2019-03-30T02:01:59.322Z,7.3
2019-03-30T02:03:08.617Z,7.3
2019-03-30T02:04:17.959Z,7.3
2019-03-30T02:05:27.218Z,7.2
2019-03-30T02:06:36.559Z,7.2
2019-03-30T02:07:45.804Z,7.2
2019-03-30T02:08:55.200Z,7.2
2019-03-30T02:10:04.418Z,7.2
2019-03-30T02:11:13.708Z,7.2
2019-03-30T02:12:24.120Z,7.2
2019-03-30T02:13:33.338Z,7.3
2019-03-30T02:14:42.709Z,7.2
2019-03-30T02:15:51.929Z,7.2
2019-03-30T02:17:01.222Z,7.2
2019-03-30T02:18:10.555Z,7.3
2019-03-30T02:19:20.976Z,7.3
2019-03-30T02:20:30.730Z,7.2
2019-03-30T02:21:39.547Z,7.2
2019-03-30T02:22:48.861Z,7.2
2019-03-30T02:23:58.257Z,7.2
2019-03-30T02:25:07.494Z,7.2
2019-03-30T02:26:16.746Z,7.2
2019-03-30T02:27:26.028Z,7.2
2019-03-30T02:28:35.363Z,7.2
2019-03-30T02:29:44.641Z,7.2
2019-03-30T02:30:53.905Z,7.2
2019-03-30T02:32:03.223Z,7.2
2019-03-30T02:33:12.519Z,7.2
2019-03-30T02:34:21.960Z,7.2
2019-03-30T02:35:31.091Z,7.2
2019-03-30T02:36:40.404Z,7.2
2019-03-30T02:37:49.746Z,7.2
2019-03-30T02:38:58.973Z,7.2
2019-03-30T02:40:08.295Z,7.2
2019-03-30T02:41:17.568Z,7.2
2019-03-30T02:42:26.917Z,7.2
2019-03-30T02:43:36.364Z,7.2
2019-03-30T02:44:45.458Z,7.2
2019-03-30T02:45:54.754Z,7.2
2019-03-30T02:47:04.039Z,7.1
2019-03-30T02:48:13.338Z,7.1
2019-03-30T02:49:22.674Z,7.2
2019-03-30T02:50:48.077Z,7.1
2019-03-30T02:51:41.290Z,7.2
2019-03-30T02:52:50.586Z,7.2
2019-03-30T02:53:59.801Z,7.1
2019-03-30T02:55:12.499Z,7.1
2019-03-30T02:56:18.513Z,7.1
2019-03-30T02:57:27.709Z,7.1
2019-03-30T02:58:36.978Z,7
2019-03-30T02:59:46.281Z,7.1
2019-03-30T03:00:55.622Z,7.1
2019-03-30T03:02:04.864Z,7.2
2019-03-30T03:03:14.159Z,7.1
2019-03-30T03:04:23.462Z,7.1
2019-03-30T03:05:32.733Z,7.1
2019-03-30T03:06:43.086Z,7.1
2019-03-30T03:07:52.407Z,7.2
2019-03-30T03:09:01.648Z,7.1
2019-03-30T03:10:10.944Z,7.2
2019-03-30T03:11:20.300Z,7.1
2019-03-30T03:12:29.521Z,7.1
2019-03-30T03:13:38.886Z,7
2019-03-30T03:14:48.111Z,7.1
2019-03-30T03:15:57.405Z,7
2019-03-30T03:17:06.684Z,7
2019-03-30T03:18:15.986Z,7
2019-03-30T03:19:25.389Z,7
2019-03-30T03:20:34.577Z,7.1
2019-03-30T03:21:43.905Z,7
2019-03-30T03:22:53.206Z,7
2019-03-30T03:24:02.462Z,7
2019-03-30T03:25:11.795Z,6.9
2019-03-30T03:26:21.031Z,7
2019-03-30T03:27:30.322Z,7
2019-03-30T03:28:39.644Z,7
2019-03-30T03:29:48.939Z,7
2019-03-30T03:30:58.210Z,7
2019-03-30T03:32:07.529Z,7
2019-03-30T03:33:16.807Z,7
2019-03-30T03:34:26.081Z,7
2019-03-30T03:35:35.376Z,7
2019-03-30T03:36:44.760Z,6.9
2019-03-30T03:37:53.936Z,6.9
2019-03-30T03:39:03.229Z,7
2019-03-30T03:40:12.543Z,7
2019-03-30T03:41:21.991Z,7
2019-03-30T03:42:31.118Z,7
2019-03-30T03:43:40.431Z,7
2019-03-30T03:44:49.749Z,6.9
2019-03-30T03:45:58.974Z,6.9
2019-03-30T03:47:08.260Z,6.9
2019-03-30T03:48:17.629Z,6.8
2019-03-30T03:49:26.912Z,7
2019-03-30T03:50:36.119Z,6.9
2019-03-30T03:51:45.418Z,6.8
2019-03-30T03:52:54.736Z,6.9
2019-03-30T03:54:04.013Z,6.8
2019-03-30T03:55:13.315Z,6.8
2019-03-30T03:56:22.575Z,6.9
2019-03-30T03:57:31.857Z,6.8
2019-03-30T03:58:41.201Z,6.8
2019-03-30T03:59:50.502Z,6.9
2019-03-30T04:00:59.736Z,6.8
2019-03-30T04:02:09.013Z,6.8
2019-03-30T04:03:18.372Z,6.8
2019-03-30T04:04:27.590Z,6.8
2019-03-30T04:05:36.911Z,6.8
2019-03-30T04:06:46.213Z,6.8
2019-03-30T04:07:55.498Z,6.8
2019-03-30T04:09:04.850Z,6.8
2019-03-30T04:10:14.047Z,6.8
2019-03-30T04:11:23.329Z,6.8
2019-03-30T04:12:32.683Z,6.8
2019-03-30T04:13:41.872Z,6.8
2019-03-30T04:14:51.161Z,6.8
2019-03-30T04:16:00.439Z,6.8
2019-03-30T04:17:09.729Z,6.8
2019-03-30T04:18:19.069Z,6.7
2019-03-30T04:19:28.297Z,6.7
2019-03-30T04:20:37.597Z,6.7
2019-03-30T04:21:46.878Z,6.7
2019-03-30T04:22:56.161Z,6.7
2019-03-30T04:24:05.457Z,6.7
2019-03-30T04:25:14.726Z,6.7
2019-03-30T04:26:24.037Z,6.7
2019-03-30T04:27:33.318Z,6.7
2019-03-30T04:28:42.591Z,6.7
2019-03-30T04:29:52.042Z,6.7
2019-03-30T04:31:01.177Z,6.6
2019-03-30T04:32:10.555Z,6.6
2019-03-30T04:33:19.753Z,6.6
2019-03-30T04:34:29.009Z,6.6
2019-03-30T04:35:38.301Z,6.5
2019-03-30T04:36:47.576Z,6.6
2019-03-30T04:37:56.945Z,6.5
2019-03-30T04:39:06.171Z,6.6
2019-03-30T04:40:15.533Z,6.5
2019-03-30T04:41:24.712Z,6.5
2019-03-30T04:42:33.994Z,6.5
2019-03-30T04:43:43.389Z,6.5
2019-03-30T04:44:52.631Z,6.5
2019-03-30T04:46:01.935Z,6.5
2019-03-30T04:47:12.324Z,6.5
2019-03-30T04:48:21.551Z,6.4
2019-03-30T04:49:30.849Z,6.3
2019-03-30T04:50:40.273Z,6.3
2019-03-30T04:51:57.180Z,6.3
2019-03-30T04:52:58.655Z,6.3
2019-03-30T04:54:07.996Z,6.3
2019-03-30T04:55:17.220Z,6.3
2019-03-30T04:56:26.506Z,6.3
2019-03-30T04:57:35.862Z,6.3
2019-03-30T04:58:45.058Z,6.4
2019-03-30T04:59:54.347Z,6.4
2019-03-30T05:01:03.640Z,6.3
2019-03-30T05:02:12.896Z,6.3
2019-03-30T05:03:22.199Z,6.3
2019-03-30T05:04:31.592Z,6.3
2019-03-30T05:05:42.984Z,6.3
2019-03-30T05:06:50.027Z,6.3
2019-03-30T05:07:59.314Z,6.4
2019-03-30T05:09:08.573Z,6.3
2019-03-30T05:10:17.861Z,6.3
2019-03-30T05:11:27.165Z,6.3
2019-03-30T05:12:36.538Z,6.3
2019-03-30T05:13:45.736Z,6.3
2019-03-30T05:14:54.980Z,6.3
2019-03-30T05:16:04.267Z,6.4
2019-03-30T05:17:13.570Z,6.4
2019-03-30T05:18:22.891Z,6.4
2019-03-30T05:19:32.100Z,6.5
2019-03-30T05:20:41.390Z,6.5
2019-03-30T05:21:52.199Z,6.6
2019-03-30T05:23:01.155Z,6.5
2019-03-30T05:24:10.452Z,6.5
2019-03-30T05:25:19.709Z,6.5
2019-03-30T05:26:29.175Z,6.6
2019-03-30T05:27:38.292Z,6.7
2019-03-30T05:28:47.576Z,6.8
2019-03-30T05:29:56.851Z,7
2019-03-30T05:31:06.142Z,6.8
2019-03-30T05:32:15.563Z,6.7
2019-03-30T05:33:24.856Z,6.7
2019-03-30T05:34:34.022Z,6.6
2019-03-30T05:35:43.324Z,6.6
2019-03-30T05:36:52.635Z,6.6
2019-03-30T05:38:01.998Z,6.5
2019-03-30T05:39:11.219Z,6.6
2019-03-30T05:40:20.585Z,6.6
2019-03-30T05:41:29.773Z,6.6
2019-03-30T05:42:39.125Z,6.6
2019-03-30T05:43:48.367Z,6.6
2019-03-30T05:44:58.024Z,6.6
2019-03-30T05:46:06.942Z,6.6
2019-03-30T05:47:16.409Z,6.7
2019-03-30T05:48:25.538Z,6.7
2019-03-30T05:49:34.929Z,6.8
2019-03-30T05:50:44.269Z,6.8
2019-03-30T05:51:53.469Z,6.9
2019-03-30T05:53:04.014Z,7
2019-03-30T05:54:13.175Z,7.1
2019-03-30T05:55:22.525Z,7.1
2019-03-30T05:56:31.778Z,7.2
2019-03-30T05:57:41.125Z,7.3
2019-03-30T05:58:50.464Z,7.3
2019-03-30T05:59:59.843Z,7.3
2019-03-30T06:01:09.018Z,7.2
2019-03-30T06:02:18.334Z,7.3
2019-03-30T06:03:27.649Z,7.3
2019-03-30T06:04:36.971Z,7.3
2019-03-30T06:05:46.325Z,7.3
2019-03-30T06:06:55.616Z,7.4
2019-03-30T06:08:05.016Z,7.5
2019-03-30T06:09:14.285Z,7.4
2019-03-30T06:10:23.597Z,7.5
2019-03-30T06:11:32.924Z,7.5
2019-03-30T06:12:42.263Z,7.6
2019-03-30T06:13:51.846Z,7.5
2019-03-30T06:15:00.966Z,7.7
2019-03-30T06:16:10.347Z,7.6
2019-03-30T06:17:19.614Z,7.8
2019-03-30T06:18:28.946Z,7.7
2019-03-30T06:19:38.318Z,7.8
2019-03-30T06:20:47.646Z,7.9
2019-03-30T06:21:57.416Z,8
2019-03-30T06:23:06.376Z,8.3
2019-03-30T06:24:15.696Z,8.2
2019-03-30T06:25:25.123Z,8.3
2019-03-30T06:26:34.428Z,8.3
2019-03-30T06:27:43.796Z,8.3
2019-03-30T06:28:53.137Z,8.4
2019-03-30T06:30:02.509Z,8.2
2019-03-30T06:31:12.103Z,8.4
2019-03-30T06:32:21.412Z,7.9
2019-03-30T06:33:30.618Z,8.2
2019-03-30T06:34:40.010Z,8.2
2019-03-30T06:35:50.519Z,8.3
2019-03-30T06:36:59.901Z,8.4
2019-03-30T06:38:09.207Z,8.3
2019-03-30T06:39:18.605Z,8.6
2019-03-30T06:40:28.087Z,8.5
2019-03-30T06:41:37.349Z,8.4
2019-03-30T06:42:46.742Z,8.8
2019-03-30T06:43:56.139Z,8.8
2019-03-30T06:45:05.590Z,8.5
2019-03-30T06:46:14.914Z,8.7
2019-03-30T06:47:24.307Z,8.8
2019-03-30T06:48:36.052Z,8.8
2019-03-30T06:49:43.106Z,8.8
2019-03-30T06:50:52.503Z,8.8
2019-03-30T06:52:01.923Z,9.2
2019-03-30T06:53:11.325Z,9.2
2019-03-30T06:54:20.757Z,9.4
2019-03-30T06:55:30.141Z,9.4
2019-03-30T06:56:39.534Z,9.5
2019-03-30T06:57:48.967Z,9.7
2019-03-30T06:58:58.378Z,9.6
2019-03-30T07:00:07.809Z,9.1
2019-03-30T07:01:17.238Z,9.7
2019-03-30T07:02:26.650Z,9.7
2019-03-30T07:03:36.099Z,9.8
2019-03-30T07:04:45.506Z,9.9
2019-03-30T07:05:54.965Z,9.6
2019-03-30T07:07:04.479Z,10
2019-03-30T07:08:13.803Z,9.5
2019-03-30T07:09:23.297Z,9.4
2019-03-30T07:10:32.666Z,9.6
2019-03-30T07:11:42.094Z,9.2
2019-03-30T07:12:51.580Z,9.5
2019-03-30T07:14:01.104Z,9.7
2019-03-30T07:15:10.501Z,9.6
2019-03-30T07:16:19.840Z,9.9
2019-03-30T07:17:29.314Z,10
2019-03-30T07:18:38.748Z,10.1
2019-03-30T07:19:48.193Z,10.1
2019-03-30T07:20:57.618Z,10
2019-03-30T07:22:07.068Z,10.3
2019-03-30T07:23:16.521Z,11.1
2019-03-30T07:24:26.054Z,11.2
2019-03-30T07:25:35.556Z,11.2
2019-03-30T07:26:45.033Z,11.1
2019-03-30T07:27:54.522Z,11.3
2019-03-30T07:29:03.861Z,11.8
2019-03-30T07:30:13.420Z,11.3
2019-03-30T07:31:22.832Z,11.9
2019-03-30T07:32:32.325Z,12
2019-03-30T07:33:41.815Z,11.8
2019-03-30T07:34:51.376Z,12.3
2019-03-30T07:36:00.843Z,11.8
2019-03-30T07:37:10.351Z,11
2019-03-30T07:38:19.864Z,11.8
2019-03-30T07:39:29.445Z,11.9
2019-03-30T07:40:38.926Z,12.1
2019-03-30T07:41:48.474Z,11.5
2019-03-30T07:42:57.991Z,11.5
2019-03-30T07:44:07.620Z,11.5
2019-03-30T07:45:17.056Z,11.9
2019-03-30T07:46:26.610Z,12
2019-03-30T07:47:36.176Z,11.9
2019-03-30T07:48:45.762Z,12.6
2019-03-30T07:49:55.368Z,12.1
2019-03-30T07:51:04.909Z,12.2
2019-03-30T07:52:14.375Z,12.7
2019-03-30T07:53:26.491Z,13.6
2019-03-30T07:54:33.535Z,12.4
2019-03-30T07:55:43.082Z,12.8
2019-03-30T07:57:04.109Z,13.9
2019-03-30T07:58:02.377Z,13.6
2019-03-30T07:59:11.842Z,12.6
2019-03-30T08:00:22.556Z,12.9
2019-03-30T08:01:32.156Z,13.3
2019-03-30T08:02:41.746Z,14.1
2019-03-30T08:03:52.430Z,14.4
2019-03-30T08:05:02.092Z,13.7
2019-03-30T08:06:11.678Z,13.6
2019-03-30T08:07:21.377Z,13.5
2019-03-30T08:08:30.893Z,12.8
2019-03-30T08:09:40.566Z,12.7
2019-03-30T08:10:50.179Z,12.5
2019-03-30T08:11:59.760Z,12.1
2019-03-30T08:13:09.405Z,13.3
2019-03-30T08:14:19.023Z,13.1
2019-03-30T08:15:28.644Z,13
2019-03-30T08:16:38.365Z,13.1
2019-03-30T08:17:47.897Z,12.4
2019-03-30T08:18:57.546Z,13.1
2019-03-30T08:20:07.184Z,13.8
2019-03-30T08:21:16.868Z,13.2
2019-03-30T08:22:26.428Z,13.6
2019-03-30T08:23:40.435Z,14.3
2019-03-30T08:24:45.749Z,13.9
2019-03-30T08:25:55.395Z,13.9
2019-03-30T08:27:05.019Z,13.9
2019-03-30T08:28:14.654Z,14.1
2019-03-30T08:29:24.364Z,14.9
2019-03-30T08:30:34.168Z,13.8
2019-03-30T08:31:43.655Z,13.9
2019-03-30T08:32:53.419Z,13.9
2019-03-30T08:34:02.987Z,14.2
2019-03-30T08:35:12.629Z,14.1
2019-03-30T08:36:22.277Z,14.8
2019-03-30T08:37:31.986Z,14.1
2019-03-30T08:38:41.705Z,14.5
2019-03-30T08:39:51.333Z,14.8
2019-03-30T08:41:00.985Z,14.9
2019-03-30T08:42:10.675Z,14.7
2019-03-30T08:43:20.385Z,14.9
2019-03-30T08:44:30.007Z,14.9
2019-03-30T08:45:39.797Z,15.3
2019-03-30T08:46:49.380Z,15.4
2019-03-30T08:47:59.058Z,15.7
2019-03-30T08:49:08.809Z,16.1
2019-03-30T08:50:18.529Z,16.8
2019-03-30T08:51:28.147Z,17.2
2019-03-30T08:52:37.858Z,15.6
2019-03-30T08:53:54.254Z,15.1
2019-03-30T08:54:57.299Z,14.6
2019-03-30T08:56:07.009Z,14.3
2019-03-30T08:57:16.799Z,15
2019-03-30T08:58:26.406Z,15
2019-03-30T08:59:36.166Z,14.9
2019-03-30T09:00:45.827Z,14.3
2019-03-30T09:01:55.575Z,14.3
2019-03-30T09:03:05.330Z,14.4
2019-03-30T09:04:15.024Z,15.8
2019-03-30T09:05:24.710Z,15.8
2019-03-30T09:06:34.394Z,16.1
2019-03-30T09:07:44.148Z,16.2
2019-03-30T09:08:53.816Z,15.9
2019-03-30T09:10:03.531Z,15.6
2019-03-30T09:11:13.277Z,15.3
2019-03-30T09:12:22.972Z,14.6
2019-03-30T09:13:32.679Z,15
2019-03-30T09:14:43.531Z,15.5
2019-03-30T09:15:53.235Z,14.7
2019-03-30T09:17:02.973Z,15
2019-03-30T09:18:12.734Z,15
2019-03-30T09:19:22.371Z,15.6
2019-03-30T09:20:32.038Z,15
2019-03-30T09:21:41.821Z,14.7
2019-03-30T09:22:51.501Z,14.3
2019-03-30T09:24:09.217Z,14.7
2019-03-30T09:25:10.749Z,15.6
2019-03-30T09:26:20.502Z,15.4
2019-03-30T09:27:30.122Z,15.6
2019-03-30T09:28:39.846Z,15
2019-03-30T09:29:49.436Z,14.6
2019-03-30T09:30:59.113Z,14.6
2019-03-30T09:32:14.523Z,14.9
2019-03-30T09:33:18.442Z,14.5
2019-03-30T09:34:28.121Z,14.5
2019-03-30T09:35:37.793Z,15
2019-03-30T09:36:47.638Z,14.4
2019-03-30T09:37:57.120Z,15.2
2019-03-30T09:39:06.826Z,14.8
2019-03-30T09:40:16.444Z,14.6
2019-03-30T09:41:26.137Z,15.6
2019-03-30T09:42:35.773Z,16.8
2019-03-30T09:43:45.463Z,15.9
2019-03-30T09:44:55.121Z,15.7
2019-03-30T09:46:04.775Z,15.6
2019-03-30T09:47:14.478Z,16.6
2019-03-30T09:48:24.204Z,16.1
2019-03-30T09:49:33.808Z,15.9
2019-03-30T09:50:43.635Z,15.4
2019-03-30T09:51:53.165Z,16.2
2019-03-30T09:53:02.822Z,16.9
2019-03-30T09:54:23.018Z,15.7
2019-03-30T09:55:22.198Z,15.7
2019-03-30T09:56:31.885Z,16.3
2019-03-30T09:57:41.580Z,17.6
2019-03-30T09:58:51.267Z,16.2
2019-03-30T10:00:01.343Z,16.8
2019-03-30T10:01:10.618Z,16.4
2019-03-30T10:02:20.384Z,16.3
2019-03-30T10:03:30.067Z,16.8
2019-03-30T10:04:39.719Z,16.4
2019-03-30T10:05:49.488Z,15.5
2019-03-30T10:06:59.093Z,16.7
2019-03-30T10:08:08.808Z,15.9
2019-03-30T10:09:18.420Z,15.8
2019-03-30T10:10:28.114Z,16.6
2019-03-30T10:11:37.785Z,17.5
2019-03-30T10:12:47.485Z,17
2019-03-30T10:13:57.165Z,16.6
2019-03-30T10:15:06.910Z,16.6
2019-03-30T10:16:16.578Z,16.2
2019-03-30T10:17:26.204Z,16.2
2019-03-30T10:18:35.847Z,15.7
2019-03-30T10:19:49.700Z,15.9
2019-03-30T10:20:55.208Z,17.7
2019-03-30T10:22:04.856Z,16.8
2019-03-30T10:23:14.547Z,16.5
2019-03-30T10:24:37.387Z,16.4
2019-03-30T10:25:33.913Z,15.9
2019-03-30T10:26:43.560Z,16.1
2019-03-30T10:27:53.233Z,17.4
2019-03-30T10:29:02.918Z,16.2
2019-03-30T10:30:12.594Z,16.4
2019-03-30T10:31:22.261Z,16.5
2019-03-30T10:32:31.905Z,17.2
2019-03-30T10:33:41.589Z,16.5
2019-03-30T10:34:51.284Z,16.9
2019-03-30T10:36:01.028Z,18.3
2019-03-30T10:37:10.826Z,18.5
2019-03-30T10:38:20.319Z,19.1
2019-03-30T10:39:30.400Z,18.1
2019-03-30T10:40:39.703Z,18.1
2019-03-30T10:41:49.394Z,18.4
2019-03-30T10:42:59.112Z,19.6
2019-03-30T10:44:08.832Z,18.5
2019-03-30T10:45:18.551Z,18.6
2019-03-30T10:46:28.244Z,18.5
2019-03-30T10:47:38.040Z,17.2
2019-03-30T10:48:47.729Z,17
2019-03-30T10:49:57.481Z,17.1
2019-03-30T10:51:07.157Z,18.2
2019-03-30T10:52:16.881Z,17
2019-03-30T10:53:26.636Z,17.3
2019-03-30T10:54:36.380Z,18
2019-03-30T10:55:46.054Z,18
2019-03-30T10:56:55.771Z,18.1
2019-03-30T10:58:05.510Z,18.2
2019-03-30T10:59:15.224Z,18
2019-03-30T11:00:24.908Z,17.6
2019-03-30T11:01:34.660Z,17.7
2019-03-30T11:02:44.333Z,17.3
2019-03-30T11:03:54.095Z,17.9
2019-03-30T11:05:03.767Z,19.7
2019-03-30T11:06:13.527Z,20.6
2019-03-30T11:07:23.165Z,21.5
2019-03-30T11:08:32.899Z,21.2
2019-03-30T11:09:42.657Z,20.5
2019-03-30T11:10:52.508Z,21.1
2019-03-30T11:12:02.122Z,18.7
2019-03-30T11:13:11.874Z,18.5
2019-03-30T11:14:21.653Z,18
2019-03-30T11:15:33.992Z,19.8
2019-03-30T11:16:41.200Z,20.5
2019-03-30T11:17:50.865Z,21.7
2019-03-30T11:19:00.636Z,22.4
2019-03-30T11:20:10.397Z,23.2
2019-03-30T11:21:20.228Z,23.4
2019-03-30T11:22:29.943Z,23.6
2019-03-30T11:23:39.768Z,24.1
2019-03-30T11:24:49.531Z,23.1
2019-03-30T11:25:59.355Z,21.4
2019-03-30T11:27:09.174Z,21.1
2019-03-30T11:28:18.987Z,18.5
2019-03-30T11:29:28.798Z,20.2
2019-03-30T11:30:38.639Z,20
2019-03-30T11:31:48.587Z,19.8
2019-03-30T11:32:58.670Z,19.8
2019-03-30T11:34:09.633Z,19.6
2019-03-30T11:35:19.439Z,20.5
2019-03-30T11:36:29.584Z,20.1
2019-03-30T11:37:39.060Z,20.1
2019-03-30T11:38:48.850Z,20.5
2019-03-30T11:39:58.654Z,21.1
2019-03-30T11:41:08.428Z,20.8
2019-03-30T11:42:18.236Z,21.1
2019-03-30T11:43:28.066Z,21
2019-03-30T11:44:37.949Z,21.1
2019-03-30T11:45:47.630Z,21.6
2019-03-30T11:46:57.443Z,22.2
2019-03-30T11:48:07.313Z,21.8
2019-03-30T11:49:17.082Z,21.1
2019-03-30T11:50:26.915Z,19.7
2019-03-30T11:51:36.769Z,20.8
2019-03-30T11:52:46.513Z,21.6
2019-03-30T11:53:56.348Z,21.6
2019-03-30T11:55:20.500Z,22.1
2019-03-30T11:56:16.018Z,22.6
2019-03-30T11:57:25.847Z,21.2
2019-03-30T11:58:35.725Z,21.4
2019-03-30T11:59:45.576Z,21.2
2019-03-30T12:00:55.391Z,19.4
2019-03-30T12:02:05.263Z,19.5
2019-03-30T12:03:15.099Z,19.7
2019-03-30T12:04:24.967Z,20.1
2019-03-30T12:05:34.698Z,21.1
2019-03-30T12:06:44.536Z,21.6
2019-03-30T12:07:54.359Z,22.2
2019-03-30T12:09:04.192Z,22.2
2019-03-30T12:10:14.030Z,22.8
2019-03-30T12:11:23.926Z,21.2
2019-03-30T12:12:37.044Z,20.9
2019-03-30T12:13:43.679Z,20.7
2019-03-30T12:14:53.430Z,20.9
2019-03-30T12:16:03.322Z,21.2
2019-03-30T12:17:13.520Z,21.6
2019-03-30T12:18:22.995Z,21.4
2019-03-30T12:19:32.823Z,21
2019-03-30T12:20:42.749Z,22.2
2019-03-30T12:21:52.546Z,22.8
2019-03-30T12:23:02.515Z,22.7
2019-03-30T12:24:12.304Z,21.6
2019-03-30T12:25:34.722Z,22.1
2019-03-30T12:26:32.011Z,22.7
2019-03-30T12:27:41.956Z,22.2
2019-03-30T12:28:51.894Z,22.1
2019-03-30T12:30:01.668Z,22.2
2019-03-30T12:31:11.585Z,22.5
2019-03-30T12:32:21.550Z,20.8
2019-03-30T12:33:31.366Z,21.5
2019-03-30T12:34:41.300Z,20.7
2019-03-30T12:35:51.215Z,21.4
2019-03-30T12:37:01.068Z,22.5
2019-03-30T12:38:10.992Z,22.6
2019-03-30T12:39:20.940Z,22.8
2019-03-30T12:40:30.914Z,23.2
2019-03-30T12:41:40.711Z,23
2019-03-30T12:42:50.680Z,22.5
2019-03-30T12:44:00.569Z,22.2
2019-03-30T12:45:10.494Z,21.7
2019-03-30T12:46:20.506Z,21.1
2019-03-30T12:47:30.399Z,19.7
2019-03-30T12:48:40.320Z,20.2
2019-03-30T12:49:50.359Z,19.5
2019-03-30T12:51:00.168Z,21.3
2019-03-30T12:52:10.126Z,21.6
2019-03-30T12:53:20.025Z,22.4
2019-03-30T12:54:29.930Z,23
2019-03-30T12:55:48.955Z,23.9
2019-03-30T12:56:49.893Z,23.7
2019-03-30T12:57:59.765Z,23.4
2019-03-30T12:59:09.780Z,23.1
2019-03-30T13:00:19.699Z,23.2
2019-03-30T13:01:29.759Z,24.4
2019-03-30T13:02:39.581Z,24.4
2019-03-30T13:03:49.582Z,23.8
2019-03-30T13:04:59.491Z,24.4
2019-03-30T13:06:09.454Z,24
2019-03-30T13:07:19.415Z,24.3
2019-03-30T13:08:29.430Z,23.3
2019-03-30T13:09:39.450Z,22.2
2019-03-30T13:10:49.378Z,22
2019-03-30T13:13:09.391Z,21.3
2019-03-30T13:14:19.332Z,21.6
2019-03-30T13:15:29.427Z,21.3
2019-03-30T13:16:39.304Z,22.3
2019-03-30T13:17:49.289Z,23
2019-03-30T13:18:59.256Z,20.6
2019-03-30T13:20:09.308Z,21.2
2019-03-30T13:21:19.242Z,20.6
2019-03-30T13:22:29.214Z,20.4
2019-03-30T13:23:39.133Z,20.1
2019-03-30T13:24:49.134Z,20.5
2019-03-30T13:26:03.686Z,19.8
2019-03-30T13:27:09.044Z,20.7
2019-03-30T13:28:18.969Z,20.9
2019-03-30T13:29:28.906Z,21
2019-03-30T13:30:38.872Z,21.7
2019-03-30T13:31:48.869Z,20.8
2019-03-30T13:32:58.883Z,21.4
2019-03-30T13:34:08.939Z,20.2
2019-03-30T13:35:18.734Z,18.9
2019-03-30T13:36:28.736Z,20.4
2019-03-30T13:37:38.594Z,20.5
2019-03-30T13:38:49.020Z,21.8
2019-03-30T13:39:58.554Z,20.6
2019-03-30T13:41:08.524Z,20.7
2019-03-30T13:42:18.505Z,20.7
2019-03-30T13:43:28.593Z,20.7
2019-03-30T13:44:38.472Z,20.8
2019-03-30T13:45:48.485Z,21.2
2019-03-30T13:46:58.554Z,21.2
2019-03-30T13:48:08.470Z,21
2019-03-30T13:49:18.474Z,21.3
2019-03-30T13:50:30.933Z,21.5
2019-03-30T13:51:38.528Z,22.3
2019-03-30T13:52:48.574Z,22
2019-03-30T13:53:58.623Z,21.3
2019-03-30T13:55:08.655Z,21.3
2019-03-30T13:56:18.745Z,21.7
2019-03-30T13:57:28.809Z,22
2019-03-30T13:58:38.902Z,22
2019-03-30T13:59:49.138Z,21.7
2019-03-30T14:00:59.279Z,21.9
2019-03-30T14:02:09.434Z,22.1
2019-03-30T14:03:19.401Z,21.7
2019-03-30T14:04:29.533Z,22.4
2019-03-30T14:05:39.657Z,22.2
2019-03-30T14:06:49.971Z,22.3
2019-03-30T14:07:59.973Z,22.6
2019-03-30T14:09:10.144Z,22.6
2019-03-30T14:10:20.521Z,22.3
2019-03-30T14:11:30.528Z,22.8
2019-03-30T14:12:40.703Z,22.5
2019-03-30T14:13:50.914Z,22.7
2019-03-30T14:16:11.252Z,21.8
2019-03-30T14:17:21.453Z,20.5
2019-03-30T14:18:31.619Z,20.8
2019-03-30T14:19:41.912Z,21.1
2019-03-30T14:20:52.080Z,20.4
2019-03-30T14:22:02.324Z,21.1
2019-03-30T14:23:12.375Z,21.3
2019-03-30T14:24:22.565Z,21.3
2019-03-30T14:25:32.740Z,21.7
2019-03-30T14:26:42.980Z,22
2019-03-30T14:27:53.184Z,21.6
2019-03-30T14:29:03.277Z,21.5
2019-03-30T14:30:13.561Z,21.9
2019-03-30T14:31:23.639Z,21.5
2019-03-30T14:32:33.800Z,22
2019-03-30T14:33:44.121Z,22.1
2019-03-30T14:34:54.195Z,22.2
2019-03-30T14:36:04.455Z,22
2019-03-30T14:37:14.691Z,22.3
2019-03-30T14:38:24.753Z,22.3
2019-03-30T14:39:34.966Z,22.3
2019-03-30T14:40:45.165Z,22
2019-03-30T14:41:55.576Z,22.6
2019-03-30T14:43:05.797Z,22.7
2019-03-30T14:44:16.089Z,22.7
2019-03-30T14:45:25.948Z,21.9
2019-03-30T14:46:36.218Z,21.3
2019-03-30T14:47:46.383Z,21.6
2019-03-30T14:48:56.441Z,21.9
2019-03-30T14:50:06.716Z,21.8
2019-03-30T14:51:16.742Z,22.2
2019-03-30T14:52:26.874Z,21.5
2019-03-30T14:53:37.002Z,22.2
2019-03-30T14:54:52.858Z,22
2019-03-30T14:55:57.248Z,21.9
2019-03-30T14:57:07.385Z,21.2
2019-03-30T14:58:17.532Z,21.8
2019-03-30T14:59:27.582Z,21.5
2019-03-30T15:00:37.726Z,21.3
2019-03-30T15:01:48.246Z,21.2
2019-03-30T15:02:57.861Z,20.9
2019-03-30T15:04:07.935Z,21.4
2019-03-30T15:05:18.027Z,20.7
2019-03-30T15:06:28.094Z,21
2019-03-30T15:07:38.108Z,21.4
2019-03-30T15:08:48.149Z,21.7
2019-03-30T15:09:58.209Z,21.5
2019-03-30T15:11:08.259Z,21.3
2019-03-30T15:12:18.329Z,20.7
2019-03-30T15:13:28.348Z,21.2
2019-03-30T15:14:38.385Z,21.5
2019-03-30T15:15:48.471Z,21.5
2019-03-30T15:16:58.416Z,21.3
2019-03-30T15:18:08.492Z,21.3
2019-03-30T15:19:18.478Z,21.2
2019-03-30T15:20:28.495Z,21.1
2019-03-30T15:21:38.564Z,21
2019-03-30T15:22:48.558Z,21
2019-03-30T15:23:58.669Z,20.8
2019-03-30T15:25:08.525Z,20.7
2019-03-30T15:26:21.809Z,20.5
2019-03-30T15:27:28.525Z,20.7
2019-03-30T15:28:38.532Z,21
2019-03-30T15:29:48.599Z,21.1
2019-03-30T15:30:58.512Z,21.3
2019-03-30T15:32:08.515Z,21.3
2019-03-30T15:33:18.660Z,21
2019-03-30T15:34:28.494Z,21
2019-03-30T15:35:38.509Z,20.5
2019-03-30T15:36:48.557Z,20.6
2019-03-30T15:37:58.485Z,21
2019-03-30T15:39:08.482Z,21
2019-03-30T15:40:18.474Z,21.4
2019-03-30T15:41:28.483Z,21.1
2019-03-30T15:42:40.301Z,20.8
2019-03-30T15:43:51.798Z,20.7
2019-03-30T15:44:58.465Z,21
2019-03-30T15:46:08.366Z,21
2019-03-30T15:47:18.431Z,21.2
2019-03-30T15:48:28.437Z,21
2019-03-30T15:49:38.249Z,21.5